createdAt,value
2019-05-25T00:02:48.317Z,97858.44
2019-05-25T00:05:38.705Z,97860.59
2019-05-25T00:08:28.290Z,97861.20
2019-05-25T00:11:17.915Z,97852.81
2019-05-25T00:14:29.518Z,97850.56
2019-05-25T00:17:19.715Z,97850.30
2019-05-25T00:20:09.862Z,97856.97
2019-05-25T00:22:59.409Z,97852.92
2019-05-25T00:25:48.920Z,97854.00
2019-05-25T00:28:38.501Z,97848.14
2019-05-25T00:31:30.505Z,97861.74
2019-05-25T00:34:01.217Z,97858.17
2019-05-25T00:36:51.133Z,97862.82
2019-05-25T00:42:40.065Z,97854.47
2019-05-25T00:45:12.923Z,97859.72
2019-05-25T00:48:04.023Z,97854.33
2019-05-25T00:50:53.635Z,97854.00
2019-05-25T00:53:35.206Z,97857.20
2019-05-25T00:58:59.824Z,97853.02
2019-05-25T01:04:25.373Z,97848.83
2019-05-25T01:07:01.798Z,97840.34
2019-05-25T01:09:55.567Z,97840.10
2019-05-25T01:12:51.167Z,97840.94
2019-05-25T01:15:38.141Z,97836.39
2019-05-25T01:18:28.246Z,97837.93
2019-05-25T01:21:26.937Z,97838.77
2019-05-25T01:32:34.499Z,97855.00
2019-05-25T01:35:16.219Z,97849.75
2019-05-25T01:38:06.081Z,97851.67
2019-05-25T01:40:55.584Z,97847.96
2019-05-25T01:43:46.869Z,97850.45
2019-05-25T01:46:17.542Z,97847.11
2019-05-25T01:48:48.228Z,97850.80
2019-05-25T01:51:37.689Z,97849.59
2019-05-25T01:54:27.230Z,97850.06
2019-05-25T01:56:57.795Z,97849.95
2019-05-25T01:59:28.541Z,97852.67
2019-05-25T02:02:11.022Z,97850.42
2019-05-25T02:04:52.431Z,97850.05
2019-05-25T02:07:34.766Z,97854.83
2019-05-25T02:10:17.202Z,97855.07
2019-05-25T02:12:47.995Z,97854.59
2019-05-25T02:15:37.630Z,97856.75
2019-05-25T02:18:27.233Z,97861.41
2019-05-25T02:21:16.994Z,97862.95
2019-05-25T02:23:47.724Z,97855.44
2019-05-25T02:26:37.302Z,97854.81
2019-05-25T02:29:26.695Z,97857.44
2019-05-25T02:31:57.669Z,97851.33
2019-05-25T02:34:47.293Z,97852.49
2019-05-25T02:37:37.709Z,97853.11
2019-05-25T02:40:27.465Z,97849.88
2019-05-25T02:43:18.132Z,97849.53
2019-05-25T02:46:08.253Z,97852.40
2019-05-25T02:48:57.926Z,97862.65
2019-05-25T02:51:47.916Z,97862.65
2019-05-25T02:54:38.020Z,97856.66
2019-05-25T02:57:28.074Z,97858.47
2019-05-25T03:00:18.011Z,97855.02
2019-05-25T03:03:08.798Z,97858.24
2019-05-25T03:05:58.925Z,97854.03
2019-05-25T03:08:49.629Z,97860.97
2019-05-25T03:11:59.866Z,97857.97
2019-05-25T03:14:49.579Z,97857.97
2019-05-25T03:17:41.572Z,97858.92
2019-05-25T03:20:31.271Z,97860.92
2019-05-25T03:23:02.062Z,97863.77
2019-05-25T03:25:49.620Z,97862.69
2019-05-25T03:28:16.734Z,97864.44
2019-05-25T03:30:47.600Z,97866.69
2019-05-25T03:33:37.176Z,97874.56
2019-05-25T03:36:27.206Z,97864.06
2019-05-25T03:39:17.098Z,97867.53
2019-05-25T03:42:07.461Z,97872.91
2019-05-25T03:44:57.420Z,97867.88
2019-05-25T03:47:47.231Z,97872.75
2019-05-25T03:50:37.341Z,97879.31
2019-05-25T03:53:27.308Z,97880.28
2019-05-25T03:56:16.928Z,97883.59
2019-05-25T03:59:06.955Z,97885.00
2019-05-25T04:01:56.557Z,97887.37
2019-05-25T04:04:46.577Z,97886.90
2019-05-25T04:07:36.523Z,97890.77
2019-05-25T04:10:26.238Z,97888.14
2019-05-25T04:13:15.872Z,97888.14
2019-05-25T04:19:14.477Z,97892.86
2019-05-25T04:22:04.447Z,97900.73
2019-05-25T04:24:55.379Z,97896.23
2019-05-25T04:27:44.990Z,97891.48
2019-05-25T04:30:34.911Z,97898.16
2019-05-25T04:33:24.529Z,97898.07
2019-05-25T04:36:14.518Z,97891.66
2019-05-25T04:39:24.259Z,97894.78
2019-05-25T04:41:55.041Z,97808.66
2019-05-25T04:44:45.897Z,97890.63
2019-05-25T04:47:35.858Z,97896.84
2019-05-25T04:50:16.460Z,97902.58
2019-05-25T04:53:06.083Z,97906.22
2019-05-25T04:55:55.906Z,97909.62
2019-05-25T04:58:45.849Z,97910.38
2019-05-25T05:01:35.452Z,97913.25
2019-05-25T05:04:25.124Z,97917.96
2019-05-25T05:07:14.720Z,97919.06
2019-05-25T05:10:04.605Z,97921.23
2019-05-25T05:12:54.201Z,97919.92
2019-05-25T05:15:44.276Z,97925.80
2019-05-25T05:18:33.946Z,97924.14
2019-05-25T05:21:23.936Z,97927.38
2019-05-25T05:24:13.574Z,97924.28
2019-05-25T05:26:55.375Z,97928.59
2019-05-25T05:29:35.890Z,97927.63
2019-05-25T05:32:27.908Z,97927.05
2019-05-25T05:35:17.181Z,97931.09
2019-05-25T05:37:49.214Z,97919.39
2019-05-25T05:40:57.963Z,97927.05
2019-05-25T05:43:48.407Z,97931.92
2019-05-25T05:46:43.063Z,97933.84
2019-05-25T05:49:14.445Z,97935.77
2019-05-25T05:52:08.746Z,97931.11
2019-05-25T05:55:00.150Z,97931.34
2019-05-25T05:57:49.645Z,97927.02
2019-05-25T06:00:45.760Z,97939.12
2019-05-25T06:03:16.819Z,97939.12
2019-05-25T06:06:09.314Z,97934.56
2019-05-25T06:08:42.053Z,97935.88
2019-05-25T06:11:12.931Z,97938.03
2019-05-25T06:14:03.663Z,97938.12
2019-05-25T06:19:39.745Z,97947.64
2019-05-25T06:22:10.655Z,97948.32
2019-05-25T06:25:06.101Z,97952.02
2019-05-25T06:27:37.091Z,97949.59
2019-05-25T06:30:10.962Z,97950.20
2019-05-25T06:32:43.290Z,97951.09
2019-05-25T06:35:32.984Z,97943.22
2019-05-25T06:38:03.804Z,97951.38
2019-05-25T06:40:53.557Z,97952.64
2019-05-25T06:43:24.619Z,97952.90
2019-05-25T06:45:55.315Z,97949.88
2019-05-25T06:48:26.578Z,97949.13
2019-05-25T06:51:25.872Z,97950.07
2019-05-25T06:54:08.516Z,97950.03
2019-05-25T06:56:39.581Z,97947.36
2019-05-25T06:59:10.471Z,97956.14
2019-05-25T07:01:44.100Z,97953.59
2019-05-25T07:04:34.465Z,97959.30
2019-05-25T07:07:45.603Z,97954.55
2019-05-25T07:10:38.451Z,97951.14
2019-05-25T07:13:15.107Z,97958.13
2019-05-25T07:16:06.224Z,97950.86
2019-05-25T07:18:37.565Z,97957.33
2019-05-25T07:21:08.806Z,97961.53
2019-05-25T07:23:39.815Z,97964.34
2019-05-25T07:26:29.752Z,97967.16
2019-05-25T07:29:01.610Z,97966.48
2019-05-25T07:31:53.737Z,97964.17
2019-05-25T07:34:45.967Z,97968.16
2019-05-25T07:37:38.673Z,97966.03
2019-05-25T07:40:10.494Z,97969.59
2019-05-25T07:43:00.208Z,97974.78
2019-05-25T07:45:31.428Z,97972.44
2019-05-25T07:51:10.835Z,97973.55
2019-05-25T07:54:19.455Z,97975.87
2019-05-25T07:56:50.411Z,97970.58
2019-05-25T07:59:40.047Z,97973.64
2019-05-25T08:02:10.924Z,97972.66
2019-05-25T08:07:51.941Z,97976.12
2019-05-25T08:10:22.864Z,97916.02
2019-05-25T08:12:53.721Z,97974.83
2019-05-25T08:15:43.655Z,97978.36
2019-05-25T08:18:14.758Z,97975.40
2019-05-25T08:20:47.447Z,97984.05
2019-05-25T08:23:37.324Z,97985.36
2019-05-25T08:26:27.173Z,97885.86
2019-05-25T08:28:58.365Z,97986.27
2019-05-25T08:31:34.113Z,97992.09
2019-05-25T08:34:04.961Z,97988.44
2019-05-25T08:36:35.788Z,97987.11
2019-05-25T08:39:09.069Z,97989.61
2019-05-25T08:41:39.792Z,97990.19
2019-05-25T08:44:21.082Z,97987.22
2019-05-25T08:46:55.635Z,97987.75
2019-05-25T08:52:47.842Z,97998.60
2019-05-25T08:55:20.733Z,97996.59
2019-05-25T08:58:10.293Z,97996.13
2019-05-25T09:00:41.063Z,97997.84
2019-05-25T09:03:12.186Z,98000.94
2019-05-25T09:05:43.025Z,98013.27
2019-05-25T09:08:32.687Z,98013.81
2019-05-25T09:11:03.359Z,98012.72
2019-05-25T09:13:34.868Z,98012.31
2019-05-25T09:16:28.251Z,98014.27
2019-05-25T09:25:26.153Z,98029.17
2019-05-25T09:27:59.226Z,98023.59
2019-05-25T09:30:51.684Z,98016.15
2019-05-25T09:33:27.225Z,98024.77
2019-05-25T09:36:19.676Z,98030.44
2019-05-25T09:41:56.273Z,98035.42
2019-05-25T09:44:38.689Z,98035.98
2019-05-25T09:47:11.625Z,98035.84
2019-05-25T09:50:02.926Z,98028.10
2019-05-25T09:52:53.187Z,98022.27
2019-05-25T09:58:59.935Z,98020.60
2019-05-25T10:05:20.521Z,98009.11
2019-05-25T10:08:24.283Z,98012.23
2019-05-25T10:10:54.058Z,98015.97
2019-05-25T10:13:53.915Z,98015.30
2019-05-25T10:23:25.627Z,98012.83
2019-05-25T10:26:54.530Z,98020.66
2019-05-25T10:29:53.336Z,98022.77
2019-05-25T10:35:44.578Z,98040.54
2019-05-25T10:38:20.857Z,98050.20
2019-05-25T10:44:18.674Z,98048.55
2019-05-25T10:49:43.148Z,97980.57
2019-05-25T10:52:54.811Z,98041.77
2019-05-25T10:55:50.622Z,98049.17
2019-05-25T10:59:00.991Z,98045.91
2019-05-25T11:01:55.113Z,98051.97
2019-05-25T11:07:42.550Z,98058.37
2019-05-25T11:10:33.655Z,98062.00
2019-05-25T11:13:05.558Z,98058.70
2019-05-25T11:15:36.955Z,98054.23
2019-05-25T11:18:09.983Z,98050.48
2019-05-25T11:20:40.903Z,98052.97
2019-05-25T11:23:31.275Z,98049.03
2019-05-25T11:26:21.048Z,98040.78
2019-05-25T11:28:51.803Z,98030.01
2019-05-25T11:31:22.493Z,98031.04
2019-05-25T11:34:03.850Z,98021.28
2019-05-25T11:36:45.294Z,98015.90
2019-05-25T11:39:26.788Z,97966.14
2019-05-25T11:41:57.724Z,98002.20
2019-05-25T11:44:28.539Z,97996.91
2019-05-25T11:46:59.340Z,97992.80
2019-05-25T11:49:33.202Z,97988.58
2019-05-25T11:52:05.033Z,97977.80
2019-05-25T11:54:36.259Z,97975.62
2019-05-25T11:57:07.150Z,97972.22
2019-05-25T11:59:57.083Z,97968.84
2019-05-25T12:02:27.797Z,97975.67
2019-05-25T12:04:58.711Z,97970.62
2019-05-25T12:07:44.491Z,97961.30
2019-05-25T12:10:34.211Z,97962.78
2019-05-25T12:13:42.600Z,97955.16
2019-05-25T12:16:16.362Z,97958.78
2019-05-25T12:19:06.095Z,97955.14
2019-05-25T12:21:47.066Z,97959.63
2019-05-25T12:24:36.671Z,97955.30
2019-05-25T12:27:10.195Z,97948.28
2019-05-25T12:30:00.567Z,97954.95
2019-05-25T12:32:31.503Z,97949.66
2019-05-25T12:35:02.487Z,97946.55
2019-05-25T12:37:34.659Z,97946.04
2019-05-25T12:40:06.116Z,97952.74
2019-05-25T12:42:37.046Z,97950.48
2019-05-25T12:45:28.449Z,97958.84
2019-05-25T12:48:19.038Z,97959.77
2019-05-25T12:51:10.139Z,97948.30
2019-05-25T12:53:59.890Z,97952.66
2019-05-25T12:56:30.747Z,97955.33
2019-05-25T12:59:20.740Z,97953.11
2019-05-25T13:02:12.431Z,97962.35
2019-05-25T13:04:45.356Z,97960.37
2019-05-25T13:07:16.277Z,97968.09
2019-05-25T13:10:06.265Z,97970.14
2019-05-25T13:12:57.821Z,97961.58
2019-05-25T13:15:47.503Z,97952.10
2019-05-25T13:18:39.589Z,97948.61
2019-05-25T13:21:51.341Z,97942.00
2019-05-25T13:24:22.965Z,97931.02
2019-05-25T13:26:53.888Z,97928.13
2019-05-25T13:29:43.904Z,97925.86
2019-05-25T13:32:16.185Z,97928.36
2019-05-25T13:34:47.093Z,97927.78
2019-05-25T13:37:18.494Z,97927.67
2019-05-25T13:40:09.622Z,97922.34
2019-05-25T13:43:05.831Z,97920.17
2019-05-25T13:48:50.239Z,97920.52
2019-05-25T13:54:29.939Z,97922.25
2019-05-25T13:57:08.139Z,97922.55
2019-05-25T13:59:58.080Z,97918.00
2019-05-25T14:02:28.960Z,97904.69
2019-05-25T14:05:18.731Z,97902.18
2019-05-25T14:07:51.033Z,97894.04
2019-05-25T14:10:22.270Z,97902.53
2019-05-25T14:13:12.064Z,97911.13
2019-05-25T14:15:45.088Z,97926.45
2019-05-25T14:18:34.651Z,97938.34
2019-05-25T14:21:24.540Z,97943.13
2019-05-25T14:23:55.652Z,97953.57
2019-05-25T14:26:50.781Z,97971.59
2019-05-25T14:32:18.847Z,97985.45
2019-05-25T14:34:50.862Z,98006.64
2019-05-25T14:40:28.029Z,98021.31
2019-05-25T14:42:59.738Z,98029.02
2019-05-25T14:45:53.237Z,98036.31
2019-05-25T14:48:27.131Z,98033.31
2019-05-25T14:51:17.462Z,98048.14
2019-05-25T14:53:48.968Z,98049.22
2019-05-25T14:56:22.263Z,98043.20
2019-05-25T14:59:15.323Z,98048.92
2019-05-25T15:02:01.468Z,98046.98
2019-05-25T15:04:38.219Z,98061.80
2019-05-25T15:07:09.147Z,98061.18
2019-05-25T15:09:55.650Z,98061.75
2019-05-25T15:12:27.131Z,98058.03
2019-05-25T15:14:58.173Z,98064.00
2019-05-25T15:17:50.415Z,98065.78
2019-05-25T15:20:21.338Z,98064.61
2019-05-25T15:22:54.418Z,98062.20
2019-05-25T15:25:25.617Z,98071.52
2019-05-25T15:27:56.600Z,98071.74
2019-05-25T15:31:07.857Z,98068.17
2019-05-25T15:36:20.423Z,98068.89
2019-05-25T15:38:51.964Z,98060.28
2019-05-25T15:41:44.811Z,98042.92
2019-05-25T15:44:34.793Z,98030.61
2019-05-25T15:47:25.838Z,98012.95
2019-05-25T15:50:04.412Z,98023.72
2019-05-25T15:52:56.812Z,98026.72
2019-05-25T15:55:46.827Z,98038.17
2019-05-25T15:58:56.603Z,98053.88
2019-05-25T16:05:14.603Z,97931.84
2019-05-25T16:08:27.671Z,98040.02
2019-05-25T16:16:59.596Z,98081.34
2019-05-25T16:22:30.465Z,98084.14
2019-05-25T16:25:02.849Z,98085.70
2019-05-25T16:27:55.484Z,98080.94
2019-05-25T16:30:31.085Z,98077.70
2019-05-25T16:33:11.605Z,98085.35
2019-05-25T16:35:57.764Z,98087.98
2019-05-25T16:38:28.658Z,98091.70
2019-05-25T16:44:34.327Z,98084.30
2019-05-25T16:47:24.164Z,98080.34
2019-05-25T16:49:55.655Z,98074.84
2019-05-25T16:52:49.229Z,98079.50
2019-05-25T16:55:21.957Z,98072.77
2019-05-25T16:57:53.149Z,98075.56
2019-05-25T17:00:43.041Z,98078.31
2019-05-25T17:07:10.610Z,98073.23
2019-05-25T17:09:41.929Z,98075.95
2019-05-25T17:12:12.923Z,98074.27
2019-05-25T17:15:02.914Z,98063.68
2019-05-25T17:17:40.903Z,98063.45
2019-05-25T17:20:14.619Z,98067.29
2019-05-25T17:23:13.171Z,98070.30
2019-05-25T17:28:47.112Z,98066.58
2019-05-25T17:31:18.600Z,98061.55
2019-05-25T17:33:50.045Z,98053.42
2019-05-25T17:36:42.400Z,98051.63
2019-05-25T17:39:33.363Z,98050.16
2019-05-25T17:42:24.395Z,98045.87
2019-05-25T17:45:15.043Z,98053.03
2019-05-25T17:47:53.381Z,98050.75
2019-05-25T17:50:43.156Z,98054.95
2019-05-25T17:53:30.949Z,98054.23
2019-05-25T17:56:08.875Z,98062.36
2019-05-25T17:58:59.462Z,98057.09
2019-05-25T18:01:49.968Z,98058.44
2019-05-25T18:04:42.101Z,98050.30
2019-05-25T18:07:37.845Z,98053.30
2019-05-25T18:09:58.058Z,98061.20
2019-05-25T18:12:29.610Z,98059.52
2019-05-25T18:15:12.073Z,98066.47
2019-05-25T18:18:21.747Z,98059.88
2019-05-25T18:24:02.926Z,98066.80
2019-05-25T18:26:34.272Z,98059.05
2019-05-25T18:29:29.239Z,98057.95
2019-05-25T18:32:19.528Z,98065.73
2019-05-25T18:35:30.247Z,98071.47
2019-05-25T18:38:20.719Z,98070.03
2019-05-25T18:41:10.958Z,97950.70
2019-05-25T18:43:41.951Z,98074.36
2019-05-25T18:46:16.236Z,98070.75
2019-05-25T18:49:07.883Z,98068.59
2019-05-25T18:58:16.050Z,98072.39
2019-05-25T19:04:19.835Z,98072.13
2019-05-25T19:06:57.281Z,98071.50
2019-05-25T19:09:39.158Z,98075.18
2019-05-25T19:12:21.243Z,98071.52
2019-05-25T19:14:52.656Z,98069.09
2019-05-25T19:17:36.525Z,98062.63
2019-05-25T19:20:20.667Z,98064.40
2019-05-25T19:23:15.219Z,97997.50
2019-05-25T19:26:04.841Z,98084.64
2019-05-25T19:28:47.347Z,98079.48
2019-05-25T19:31:28.988Z,98081.09
2019-05-25T19:36:56.925Z,98077.94
2019-05-25T19:39:38.341Z,98071.34
2019-05-25T19:42:20.301Z,98078.94
2019-05-25T19:45:02.751Z,98082.03
2019-05-25T19:47:45.226Z,98086.28
2019-05-25T19:50:27.234Z,98087.80
2019-05-25T19:53:12.256Z,98095.52
2019-05-25T19:58:53.519Z,98093.06
2019-05-25T20:01:35.001Z,98093.38
2019-05-25T20:04:17.624Z,98091.42
2019-05-25T20:06:49.476Z,98087.87
2019-05-25T20:09:20.694Z,98090.02
2019-05-25T20:11:57.800Z,98098.95
2019-05-25T20:14:35.329Z,98101.03
2019-05-25T20:17:29.796Z,98106.87
2019-05-25T20:20:23.870Z,98095.44
2019-05-25T20:23:19.644Z,98105.59
2019-05-25T20:25:53.341Z,98105.98
2019-05-25T20:28:43.888Z,98102.51
2019-05-25T20:34:21.126Z,98111.02
2019-05-25T20:37:11.436Z,98107.45
2019-05-25T20:39:43.381Z,98110.84
2019-05-25T20:42:16.896Z,98118.06
2019-05-25T20:44:49.375Z,98116.20
2019-05-25T20:47:24.580Z,98118.36
2019-05-25T20:50:14.731Z,98127.91
2019-05-25T20:53:05.079Z,98126.14
2019-05-25T20:55:55.542Z,98127.28
2019-05-25T20:58:47.936Z,98120.20
2019-05-25T21:01:19.418Z,98119.36
2019-05-25T21:04:09.147Z,98120.06
2019-05-25T21:06:59.815Z,98118.37
2019-05-25T21:09:50.399Z,98119.77
2019-05-25T21:12:42.734Z,98122.30
2019-05-25T21:15:34.493Z,98124.25
2019-05-25T21:18:44.444Z,98122.95
2019-05-25T21:21:15.662Z,98116.39
2019-05-25T21:24:05.812Z,98116.86
2019-05-25T21:26:56.216Z,98114.82
2019-05-25T21:29:27.654Z,98123.82
2019-05-25T21:32:19.409Z,98123.18
2019-05-25T21:34:50.748Z,98123.18
2019-05-25T21:37:40.462Z,98119.92
2019-05-25T21:40:12.803Z,98122.34
2019-05-25T21:43:02.628Z,98124.44
2019-05-25T21:45:52.480Z,98125.66
2019-05-25T21:48:50.162Z,98132.30
2019-05-25T21:51:39.889Z,98130.20
2019-05-25T21:54:29.894Z,98130.58
2019-05-25T21:57:01.747Z,98131.10
2019-05-25T21:59:51.452Z,98130.26
2019-05-25T22:02:22.362Z,98138.83
2019-05-25T22:05:12.153Z,98130.64
2019-05-25T22:08:02.033Z,98138.41
2019-05-25T22:10:43.947Z,98136.83
2019-05-25T22:18:58.279Z,98142.48
2019-05-25T22:21:39.075Z,98150.09
2019-05-25T22:24:30.324Z,98154.75
2019-05-25T22:27:20.922Z,98153.00
2019-05-25T22:29:53.881Z,98158.13
2019-05-25T22:32:43.721Z,98154.11
2019-05-25T22:35:33.527Z,98150.12
2019-05-25T22:38:23.180Z,98151.45
2019-05-25T22:41:12.826Z,98153.48
2019-05-25T22:44:03.189Z,98160.31
2019-05-25T22:46:52.829Z,98153.41
2019-05-25T22:49:42.972Z,98154.52
2019-05-25T22:52:13.905Z,98148.70
2019-05-25T22:54:44.693Z,98150.59
2019-05-25T22:57:34.399Z,98151.25
2019-05-25T23:00:06.669Z,98148.72
2019-05-25T23:02:56.693Z,98149.12
2019-05-25T23:05:30.447Z,98143.72
2019-05-25T23:08:20.087Z,98151.40
2019-05-25T23:11:01.008Z,98148.05
2019-05-25T23:13:33.384Z,98146.73
2019-05-25T23:19:44.599Z,98133.19
2019-05-25T23:23:05.424Z,98142.08
2019-05-25T23:25:55.893Z,98143.92
2019-05-25T23:28:47.518Z,98135.61
2019-05-25T23:31:37.385Z,98137.52
2019-05-25T23:34:08.540Z,98139.21
2019-05-25T23:37:14.064Z,98134.09
2019-05-25T23:39:52.969Z,98140.38
2019-05-25T23:42:24.756Z,98138.80
2019-05-25T23:45:14.817Z,98132.64
2019-05-25T23:47:48.051Z,98134.70
2019-05-25T23:50:39.881Z,98137.91
2019-05-25T23:53:29.769Z,98142.29
2019-05-25T23:56:00.482Z,98137.98
2019-05-25T23:58:51.397Z,98133.43
